Time;durP1;ratioP1;P1;durP2;ratioP2;P2;SDS_P1;SDS_P2;PMS_P1;PMS_P2;Temp;Humidity;BMP_temperature;BMP_pressure;BME280_temperature;BME280_humidity;BME280_pressure;Samples;Min_cycle;Max_cycle;Signal;HPM_P1;HPM_P2
2022/11/27 00:00:55;;;;;;;24.00;14.23;;;;;;;3.97;100.00;95423.91;5072520;28;20799;-62
2022/11/27 00:03:20;;;;;;;22.10;14.07;;;;;;;4.02;100.00;95438.78;5072829;28;20705;-60
2022/11/27 00:05:54;;;;;;;28.83;14.33;;;;;;;4.05;100.00;95443.66;5072481;28;20698;-62
2022/11/27 00:08:20;;;;;;;25.23;13.73;;;;;;;4.08;100.00;95449.34;5072518;28;20193;-60
2022/11/27 00:10:45;;;;;;;22.90;14.50;;;;;;;4.14;100.00;95451.56;5054437;28;20208;-59
2022/11/27 00:13:11;;;;;;;20.17;12.93;;;;;;;4.13;100.00;95434.03;5054487;28;20590;-59
2022/11/27 00:15:36;;;;;;;22.87;13.93;;;;;;;4.18;100.00;95439.69;5072367;28;20211;-58
2022/11/27 00:18:01;;;;;;;22.33;13.07;;;;;;;4.22;100.00;95441.19;5072516;28;20191;-60
2022/11/27 00:20:27;;;;;;;24.87;14.07;;;;;;;4.21;100.00;95447.91;5072273;28;20274;-63
2022/11/27 00:22:52;;;;;;;19.30;13.07;;;;;;;4.21;100.00;95427.78;5054107;28;20778;-59
2022/11/27 00:25:18;;;;;;;20.40;13.13;;;;;;;4.10;100.00;95434.22;5072103;28;20230;-59
2022/11/27 00:27:43;;;;;;;25.97;14.03;;;;;;;4.18;100.00;95442.22;5072567;28;20246;-61
2022/11/27 00:30:09;;;;;;;25.87;14.20;;;;;;;3.96;100.00;95429.00;5072037;28;20200;-61
2022/11/27 00:32:34;;;;;;;23.70;13.80;;;;;;;3.73;100.00;95416.66;5072127;28;20639;-62
2022/11/27 00:35:00;;;;;;;25.07;15.27;;;;;;;3.87;100.00;95422.69;5071936;28;20209;-61
2022/11/27 00:37:25;;;;;;;22.07;13.40;;;;;;;3.67;100.00;95409.41;5072000;28;20508;-62
2022/11/27 00:39:51;;;;;;;25.20;13.67;;;;;;;3.42;100.00;95389.59;5072070;28;20205;-62
2022/11/27 00:42:16;;;;;;;23.93;13.83;;;;;;;3.47;100.00;95400.28;5072020;28;20209;-61
2022/11/27 00:44:42;;;;;;;22.43;13.53;;;;;;;3.67;100.00;95414.44;5071822;28;20205;-61
2022/11/27 00:47:08;;;;;;;21.17;13.43;;;;;;;3.73;100.00;95412.47;5053919;28;20577;-62
2022/11/27 00:49:33;;;;;;;23.17;13.80;;;;;;;3.69;100.00;95410.97;5072097;28;20225;-61
2022/11/27 00:51:58;;;;;;;24.43;13.60;;;;;;;3.70;100.00;95411.75;5071650;28;20663;-59
2022/11/27 00:54:30;;;;;;;25.70;13.80;;;;;;;3.67;100.00;95406.91;5071912;28;20636;-62
2022/11/27 00:56:55;;;;;;;20.00;13.27;;;;;;;3.57;100.00;95419.06;5053698;28;20197;-61
2022/11/27 00:59:21;;;;;;;20.20;12.43;;;;;;;3.29;100.00;95391.84;5071608;28;20720;-60
2022/11/27 01:01:46;;;;;;;32.57;15.87;;;;;;;2.97;100.00;95384.91;5071620;28;20619;-62
2022/11/27 01:04:14;;;;;;;25.23;15.80;;;;;;;3.03;100.00;95391.38;5071918;28;20310;-62
2022/11/27 01:06:40;;;;;;;31.97;16.80;;;;;;;3.25;100.00;95412.16;5071703;28;20277;-62
2022/11/27 01:09:07;;;;;;;32.63;16.20;;;;;;;3.37;100.00;95422.47;5071466;28;20585;-59
2022/11/27 01:11:34;;;;;;;32.37;16.53;;;;;;;3.42;100.00;95415.53;5053658;28;20651;-62
2022/11/27 01:14:06;;;;;;;39.87;21.30;;;;;;;3.32;100.00;95413.50;5071789;28;20193;-62
2022/11/27 01:16:32;;;;;;;40.17;21.13;;;;;;;3.19;100.00;95399.88;5071842;28;20209;-60
2022/11/27 01:19:00;;;;;;;43.63;22.93;;;;;;;3.07;100.00;95393.66;5071323;28;20200;-61
2022/11/27 01:21:29;;;;;;;45.27;24.97;;;;;;;2.83;100.00;95372.13;5070836;28;20197;-61
2022/11/27 01:23:54;;;;;;;42.73;23.63;;;;;;;2.47;100.00;95358.66;5069536;28;20206;-60
2022/11/27 01:26:20;;;;;;;44.47;22.43;;;;;;;2.33;100.00;95366.75;5052973;28;20189;-62
2022/11/27 01:28:46;;;;;;;40.77;22.03;;;;;;;2.33;100.00;95368.44;5071451;28;20193;-62
2022/11/27 01:31:18;;;;;;;39.07;21.17;;;;;;;2.68;100.00;95379.53;5071211;28;20196;-61
2022/11/27 01:33:45;;;;;;;39.17;18.97;;;;;;;2.96;100.00;95397.53;5071513;28;20211;-62
2022/11/27 01:36:12;;;;;;;39.20;21.10;;;;;;;3.14;100.00;95395.03;5053232;28;20181;-62
2022/11/27 01:38:38;;;;;;;36.27;20.40;;;;;;;3.16;100.00;95403.31;5053274;28;20649;-59
2022/11/27 01:41:05;;;;;;;34.57;19.87;;;;;;;3.21;100.00;95391.38;5070931;28;20753;-59
2022/11/27 01:43:41;;;;;;;35.37;19.33;;;;;;;3.35;100.00;95403.34;5052847;28;20217;-62
2022/11/27 01:46:26;;;;;;;32.00;18.17;;;;;;;3.56;100.00;95406.56;5071165;28;20176;-60
2022/11/27 01:48:54;;;;;;;31.70;17.73;;;;;;;3.62;100.00;95408.78;5053297;28;20188;-62
2022/11/27 01:51:21;;;;;;;30.70;17.73;;;;;;;3.68;100.00;95416.06;5070843;28;20212;-59
2022/11/27 01:53:46;;;;;;;32.43;17.17;;;;;;;3.57;100.00;95398.97;5070921;28;20687;-58
2022/11/27 01:56:13;;;;;;;30.67;16.50;;;;;;;3.62;100.00;95397.03;5071025;28;20184;-62
2022/11/27 01:58:40;;;;;;;27.83;16.93;;;;;;;3.64;100.00;95412.03;5070858;28;20276;-59
2022/11/27 02:01:06;;;;;;;25.23;15.50;;;;;;;3.62;100.00;95413.81;5070646;28;20325;-61
2022/11/27 02:03:32;;;;;;;30.93;16.13;;;;;;;3.58;100.00;95403.09;5070728;28;20307;-63
2022/11/27 02:05:57;;;;;;;26.90;15.77;;;;;;;3.65;100.00;95419.53;5052751;28;20639;-62
2022/11/27 02:08:23;;;;;;;27.50;15.73;;;;;;;3.53;100.00;95421.78;5052959;28;20215;-61
2022/11/27 02:10:57;;;;;;;28.13;16.23;;;;;;;3.63;100.00;95412.94;5079758;22;20247;-60
2022/11/27 02:13:39;;;;;;;33.97;16.13;;;;;;;3.67;100.00;95432.84;5070716;28;20570;-61
2022/11/27 02:16:17;;;;;;;32.13;17.53;;;;;;;3.55;100.00;95417.50;5052617;28;20223;-63
2022/11/27 02:18:55;;;;;;;36.00;19.23;;;;;;;3.61;100.00;95423.06;5070426;28;20602;-61
2022/11/27 02:21:26;;;;;;;46.27;26.00;;;;;;;3.71;100.00;95423.47;5070800;28;20184;-59
2022/11/27 02:23:57;;;;;;;63.50;32.00;;;;;;;3.83;100.00;95433.78;5070305;28;20210;-60
2022/11/27 02:26:52;;;;;;;69.57;33.17;;;;;;;3.74;100.00;95431.69;5070752;28;20278;-62
2022/11/27 02:29:26;;;;;;;62.23;32.40;;;;;;;3.82;100.00;95436.34;5070411;28;20574;-59
2022/11/27 02:32:28;;;;;;;62.77;31.50;;;;;;;3.63;100.00;95412.94;5070672;28;20187;-61
2022/11/27 02:34:58;;;;;;;44.57;23.00;;;;;;;3.93;100.00;95464.34;5073307;28;20208;-62
2022/11/27 02:37:35;;;;;;;50.60;24.43;;;;;;;3.81;100.00;95447.31;5074211;28;20193;-63
2022/11/27 02:40:09;;;;;;;50.23;25.40;;;;;;;3.65;100.00;95428.78;5073751;28;20204;-61
2022/11/27 02:42:44;;;;;;;52.17;25.10;;;;;;;3.66;100.00;95442.97;5074046;28;20642;-61
2022/11/27 02:45:14;;;;;;;45.23;25.63;;;;;;;3.59;100.00;95424.03;5073623;28;20232;-63
2022/11/27 02:47:43;;;;;;;41.27;21.43;;;;;;;3.59;100.00;95416.47;5073711;28;20195;-62
2022/11/27 02:50:15;;;;;;;34.17;18.70;;;;;;;3.64;100.00;95429.63;5055571;28;20205;-61
2022/11/27 02:52:42;;;;;;;28.10;15.60;;;;;;;3.56;100.00;95434.19;5073610;28;20277;-63
2022/11/27 02:55:13;;;;;;;23.60;14.40;;;;;;;3.68;100.00;95453.75;5073733;28;20223;-60
2022/11/27 02:57:40;;;;;;;23.17;13.33;;;;;;;3.69;100.00;95467.97;5073646;28;20199;-59
2022/11/27 03:00:07;;;;;;;27.00;14.17;;;;;;;3.65;100.00;95459.75;5073364;28;20207;-59
2022/11/27 03:02:38;;;;;;;23.10;12.80;;;;;;;3.76;100.00;95476.84;5038807;28;20221;-62
2022/11/27 03:05:06;;;;;;;21.27;12.50;;;;;;;3.77;100.00;95474.28;5039063;28;20205;-62
2022/11/27 03:07:46;;;;;;;28.77;14.33;;;;;;;3.76;100.00;95464.28;5055818;28;20196;-62
2022/11/27 03:10:18;;;;;;;24.53;13.87;;;;;;;3.73;100.00;95461.91;5055476;28;20693;-64
2022/11/27 03:12:45;;;;;;;22.57;12.13;;;;;;;3.70;100.00;95446.97;5073471;28;20195;-62
2022/11/27 03:15:12;;;;;;;20.63;12.87;;;;;;;3.75;100.00;95453.44;5055633;28;20253;-60
2022/11/27 03:17:53;;;;;;;21.80;13.43;;;;;;;3.71;100.00;95451.13;5055531;28;20227;-62
2022/11/27 03:20:26;;;;;;;34.13;20.37;;;;;;;2.99;100.00;95384.88;5055286;28;20228;-61
2022/11/27 03:22:54;;;;;;;38.60;20.93;;;;;;;3.27;100.00;95401.13;5073074;28;20595;-63
2022/11/27 03:25:20;;;;;;;37.83;21.67;;;;;;;3.38;100.00;95401.50;5073129;28;20208;-60
2022/11/27 03:27:56;;;;;;;42.53;22.23;;;;;;;3.21;100.00;95416.47;5073116;28;20666;-62
2022/11/27 03:30:22;;;;;;;40.07;23.50;;;;;;;2.90;100.00;95371.00;5073069;28;20201;-63
2022/11/27 03:32:47;;;;;;;41.57;23.30;;;;;;;2.72;100.00;95360.94;5073016;28;20329;-59
2022/11/27 03:35:16;;;;;;;42.07;23.33;;;;;;;2.69;100.00;95373.63;5073360;28;20716;-61
2022/11/27 03:37:42;;;;;;;45.70;22.30;;;;;;;2.49;100.00;95376.97;5055048;28;20191;-62
2022/11/27 03:40:08;;;;;;;44.10;22.67;;;;;;;2.32;100.00;95379.38;5072795;28;20580;-59
2022/11/27 03:43:08;;;;;;;38.70;21.93;;;;;;;2.27;100.00;95383.75;5072841;28;20211;-61
2022/11/27 03:45:37;;;;;;;38.10;21.43;;;;;;;2.26;100.00;95377.91;5072581;28;20228;-63
2022/11/27 03:48:37;;;;;;;41.17;21.77;;;;;;;2.28;100.00;95371.13;5054737;28;20262;-63
2022/11/27 03:51:36;;;;;;;38.63;21.07;;;;;;;2.22;100.00;95375.63;5072840;28;20220;-60
2022/11/27 03:54:25;;;;;;;39.77;21.33;;;;;;;2.19;100.00;95375.72;5072687;28;20295;-62
2022/11/27 03:56:59;;;;;;;39.63;20.17;;;;;;;2.37;100.00;95373.28;5073130;28;20193;-62
2022/11/27 03:59:34;;;;;;;39.90;22.20;;;;;;;2.63;100.00;95384.72;5072474;28;20216;-62
2022/11/27 04:02:00;;;;;;;34.83;19.03;;;;;;;2.88;100.00;95390.34;5072852;28;20188;-60
2022/11/27 04:04:25;;;;;;;38.43;20.63;;;;;;;2.79;100.00;95390.72;5072267;28;20217;-60
2022/11/27 04:06:51;;;;;;;35.90;19.60;;;;;;;2.81;100.00;95376.41;5072757;28;20579;-61
2022/11/27 04:09:16;;;;;;;37.33;19.93;;;;;;;3.02;100.00;95379.69;5072705;28;20775;-61
2022/11/27 04:11:41;;;;;;;39.83;19.53;;;;;;;3.16;100.00;95390.78;5072556;28;20577;-61
2022/11/27 04:14:07;;;;;;;37.47;18.33;;;;;;;3.29;100.00;95396.88;5072087;28;20209;-61
2022/11/27 04:16:33;;;;;;;35.33;18.73;;;;;;;2.84;100.00;95376.28;5072685;28;20246;-61
2022/11/27 04:18:58;;;;;;;33.90;18.83;;;;;;;2.82;100.00;95377.22;5072135;28;20185;-63
2022/11/27 04:21:24;;;;;;;40.57;20.13;;;;;;;2.59;100.00;95369.88;5072529;28;20227;-61
2022/11/27 04:23:49;;;;;;;35.13;19.03;;;;;;;2.46;100.00;95359.53;5071981;28;20327;-61
2022/11/27 04:26:15;;;;;;;34.53;18.10;;;;;;;2.48;100.00;95368.63;5054382;28;20619;-60
2022/11/27 04:28:40;;;;;;;36.80;20.43;;;;;;;2.38;100.00;95372.38;5054218;28;20192;-61
2022/11/27 04:31:06;;;;;;;34.20;19.87;;;;;;;2.15;100.00;95372.53;5072068;28;20217;-59
2022/11/27 04:33:37;;;;;;;38.10;19.67;;;;;;;2.30;100.00;95368.59;5072180;28;20196;-59
2022/11/27 04:36:03;;;;;;;39.13;19.60;;;;;;;2.08;100.00;95368.63;5071996;28;20276;-58
2022/11/27 04:38:29;;;;;;;38.40;21.13;;;;;;;2.23;100.00;95378.06;5071981;28;20226;-61
2022/11/27 04:40:54;;;;;;;41.23;20.13;;;;;;;2.61;100.00;95385.69;5072204;28;20216;-63
2022/11/27 04:43:20;;;;;;;38.37;19.63;;;;;;;2.81;100.00;95396.50;5071837;28;20219;-59
2022/11/27 04:45:45;;;;;;;39.23;20.20;;;;;;;2.85;100.00;95403.00;5072089;28;20240;-63
2022/11/27 04:48:10;;;;;;;35.27;18.63;;;;;;;2.90;100.00;95403.66;5071893;28;20574;-63
2022/11/27 04:50:36;;;;;;;33.87;18.43;;;;;;;3.07;100.00;95406.22;5071877;28;20217;-61
2022/11/27 04:53:01;;;;;;;36.63;19.80;;;;;;;2.67;100.00;95388.75;5071688;28;20193;-59
2022/11/27 04:55:28;;;;;;;36.07;19.53;;;;;;;2.70;100.00;95387.81;5071333;28;20204;-59
2022/11/27 04:57:53;;;;;;;37.03;19.10;;;;;;;2.70;100.00;95401.16;5071003;28;20200;-60
2022/11/27 05:00:19;;;;;;;36.93;18.37;;;;;;;2.52;100.00;95396.94;5071573;28;20212;-58
2022/11/27 05:02:45;;;;;;;38.10;19.77;;;;;;;2.49;100.00;95385.31;5071516;28;20625;-62
2022/11/27 05:05:10;;;;;;;39.60;20.00;;;;;;;2.60;100.00;95387.38;5071566;28;20208;-62
2022/11/27 05:07:36;;;;;;;41.73;21.70;;;;;;;2.56;100.00;95383.38;5071601;28;20579;-59
2022/11/27 05:10:02;;;;;;;39.23;19.50;;;;;;;2.70;100.00;95390.31;5053185;28;20213;-59
2022/11/27 05:12:28;;;;;;;39.13;18.93;;;;;;;2.37;100.00;95387.50;5071547;28;20202;-62
2022/11/27 05:14:53;;;;;;;38.77;18.93;;;;;;;2.41;100.00;95381.50;5053366;28;20216;-60
2022/11/27 05:17:19;;;;;;;36.73;19.13;;;;;;;2.63;100.00;95388.94;5071613;28;20224;-61
2022/11/27 05:19:44;;;;;;;35.20;18.33;;;;;;;2.78;100.00;95405.84;5053205;28;20214;-61
2022/11/27 05:22:09;;;;;;;38.27;19.03;;;;;;;2.92;100.00;95399.38;5071870;28;20228;-58
2022/11/27 05:24:35;;;;;;;37.10;18.87;;;;;;;3.03;100.00;95416.50;5071395;28;20624;-61
2022/11/27 05:27:00;;;;;;;32.53;17.47;;;;;;;3.17;100.00;95420.00;5071533;28;20204;-62
2022/11/27 05:29:26;;;;;;;33.27;18.07;;;;;;;3.33;100.00;95425.19;5078562;22;20231;-59
2022/11/27 05:31:51;;;;;;;36.50;19.17;;;;;;;3.27;100.00;95436.31;5071174;28;20193;-62
2022/11/27 05:34:17;;;;;;;35.73;19.87;;;;;;;3.29;100.00;95429.53;5070994;28;20211;-59
2022/11/27 05:36:44;;;;;;;34.27;18.40;;;;;;;3.44;100.00;95438.09;5071264;28;20189;-62
2022/11/27 05:39:10;;;;;;;30.97;17.33;;;;;;;3.54;100.00;95439.31;5071032;28;20257;-61
2022/11/27 05:41:38;;;;;;;30.63;16.60;;;;;;;3.51;100.00;95426.06;5071104;28;20197;-61
2022/11/27 05:44:04;;;;;;;32.97;18.27;;;;;;;3.57;100.00;95428.31;5071166;28;20220;-61
2022/11/27 05:46:29;;;;;;;31.17;18.00;;;;;;;3.61;100.00;95440.69;5071062;28;20176;-62
2022/11/27 05:48:55;;;;;;;31.60;17.47;;;;;;;3.70;100.00;95449.47;5071146;28;20205;-62
2022/11/27 05:51:20;;;;;;;31.23;18.17;;;;;;;3.73;100.00;95456.91;5070909;28;20260;-58
2022/11/27 05:53:46;;;;;;;31.33;17.60;;;;;;;3.77;100.00;95456.69;5070950;28;20189;-60
2022/11/27 05:56:14;;;;;;;33.73;18.47;;;;;;;3.89;100.00;95455.31;5070968;28;20182;-63
2022/11/27 05:58:41;;;;;;;31.20;17.30;;;;;;;3.91;100.00;95463.59;5071094;28;20185;-60
2022/11/27 06:01:08;;;;;;;32.83;19.37;;;;;;;3.80;100.00;95438.13;5070703;28;20192;-62
2022/11/27 06:03:34;;;;;;;36.43;20.33;;;;;;;3.70;100.00;95432.69;5070951;28;20266;-60
2022/11/27 06:06:08;;;;;;;38.30;21.33;;;;;;;3.74;100.00;95440.91;5070779;28;20231;-62
2022/11/27 06:08:35;;;;;;;37.30;20.97;;;;;;;3.88;100.00;95464.53;5073354;28;20200;-62
2022/11/27 06:11:15;;;;;;;40.93;22.57;;;;;;;4.04;100.00;95460.44;5074204;28;20218;-61
2022/11/27 06:13:41;;;;;;;44.07;23.83;;;;;;;4.21;100.00;95489.84;5074461;28;20193;-60
2022/11/27 06:16:15;;;;;;;40.17;21.73;;;;;;;4.18;100.00;95493.31;5073328;28;20238;-60
2022/11/27 06:18:41;;;;;;;42.30;22.30;;;;;;;4.18;100.00;95505.09;5074185;28;20342;-61
2022/11/27 06:21:08;;;;;;;33.10;19.53;;;;;;;3.97;100.00;95485.94;5074173;28;20255;-60
2022/11/27 06:23:34;;;;;;;37.47;18.87;;;;;;;3.87;100.00;95487.25;5074064;28;20216;-60
2022/11/27 06:26:15;;;;;;;32.77;19.60;;;;;;;3.78;100.00;95475.91;5074150;28;20210;-61
2022/11/27 06:28:41;;;;;;;34.20;17.77;;;;;;;3.86;100.00;95478.06;5074471;28;20184;-60
2022/11/27 06:31:12;;;;;;;30.37;18.13;;;;;;;3.96;100.00;95496.91;5055858;28;20654;-60
2022/11/27 06:33:38;;;;;;;31.53;18.87;;;;;;;4.02;100.00;95511.72;5074233;28;20256;-59
2022/11/27 06:36:05;;;;;;;37.07;19.63;;;;;;;3.93;100.00;95492.00;5073863;28;20287;-62
2022/11/27 06:38:32;;;;;;;31.00;17.70;;;;;;;3.89;100.00;95486.31;5074068;28;20193;-59
2022/11/27 06:41:06;;;;;;;35.10;19.03;;;;;;;3.92;100.00;95491.19;5073638;28;20627;-60
2022/11/27 06:43:33;;;;;;;41.30;20.57;;;;;;;3.95;100.00;95500.31;5073865;28;20213;-63
2022/11/27 06:45:59;;;;;;;41.10;21.77;;;;;;;3.84;100.00;95493.22;5073247;28;20220;-61
2022/11/27 06:48:24;;;;;;;37.30;19.83;;;;;;;3.70;100.00;95469.59;5072437;28;20265;-59
2022/11/27 06:50:50;;;;;;;34.80;18.50;;;;;;;3.82;100.00;95476.56;5053957;28;20296;-61
2022/11/27 06:53:16;;;;;;;33.03;19.13;;;;;;;3.88;100.00;95472.09;5073671;28;20227;-62
2022/11/27 06:55:41;;;;;;;32.50;18.87;;;;;;;3.82;100.00;95464.81;5073795;28;20214;-60
2022/11/27 06:58:07;;;;;;;33.17;19.27;;;;;;;3.93;100.00;95469.38;5074004;28;20196;-62
2022/11/27 07:00:33;;;;;;;32.60;18.10;;;;;;;4.06;100.00;95478.00;5055421;28;20258;-60
2022/11/27 07:02:58;;;;;;;32.53;18.07;;;;;;;4.12;100.00;95487.78;5073510;28;20216;-62
2022/11/27 07:05:24;;;;;;;30.67;16.43;;;;;;;4.11;100.00;95497.03;5073529;28;20208;-62
2022/11/27 07:07:49;;;;;;;30.80;17.23;;;;;;;4.08;100.00;95497.16;5073293;28;20594;-58
2022/11/27 07:10:15;;;;;;;30.97;18.33;;;;;;;4.28;100.00;95513.84;5073464;28;20637;-60
2022/11/27 07:12:40;;;;;;;28.27;17.40;;;;;;;4.20;100.00;95520.94;5073594;28;20557;-61
2022/11/27 07:15:06;;;;;;;37.60;19.10;;;;;;;3.99;100.00;95492.56;5073197;28;20646;-59
2022/11/27 07:17:32;;;;;;;32.70;18.47;;;;;;;3.94;100.00;95483.59;5073435;28;20239;-61
2022/11/27 07:19:58;;;;;;;28.07;17.17;;;;;;;3.96;100.00;95477.59;5072241;28;20209;-63
2022/11/27 07:22:23;;;;;;;28.37;16.83;;;;;;;4.07;100.00;95487.97;5073431;28;20192;-61
2022/11/27 07:24:49;;;;;;;35.47;19.07;;;;;;;4.06;100.00;95478.00;5073111;28;20724;-60
2022/11/27 07:27:14;;;;;;;36.37;18.53;;;;;;;4.33;100.00;95501.84;5073266;28;20259;-63
2022/11/27 07:29:40;;;;;;;39.23;19.00;;;;;;;4.33;100.00;95485.94;5072923;28;20288;-61
2022/11/27 07:32:05;;;;;;;35.07;18.77;;;;;;;4.25;100.00;95491.34;5072956;28;20236;-64
2022/11/27 07:34:30;;;;;;;33.63;18.20;;;;;;;4.23;100.00;95475.50;5072850;28;20684;-62
2022/11/27 07:36:56;;;;;;;34.47;18.33;;;;;;;4.50;100.00;95501.91;5072807;28;20178;-60
2022/11/27 07:39:21;;;;;;;30.00;17.23;;;;;;;4.53;100.00;95509.28;5073153;28;20204;-62
2022/11/27 07:41:46;;;;;;;32.07;18.03;;;;;;;4.42;100.00;95491.38;5073003;28;20191;-60
2022/11/27 07:44:12;;;;;;;37.93;20.10;;;;;;;4.40;100.00;95483.09;5073040;28;20252;-62
2022/11/27 07:46:37;;;;;;;34.37;19.57;;;;;;;4.40;100.00;95485.59;5072896;28;20187;-59
2022/11/27 07:49:03;;;;;;;42.10;19.23;;;;;;;4.57;100.00;95499.88;5072740;28;20597;-62
2022/11/27 07:51:28;;;;;;;31.77;19.40;;;;;;;4.74;100.00;95507.44;5072675;28;20185;-59
2022/11/27 07:53:54;;;;;;;36.37;19.43;;;;;;;4.68;100.00;95503.53;5072442;28;20197;-60
2022/11/27 07:56:20;;;;;;;32.50;19.60;;;;;;;4.56;100.00;95489.00;5072627;28;20275;-60
2022/11/27 07:58:46;;;;;;;32.50;19.53;;;;;;;4.74;100.00;95497.38;5072968;28;20192;-60
2022/11/27 08:01:15;;;;;;;39.10;20.97;;;;;;;4.88;100.00;95512.63;5072505;28;20736;-62
2022/11/27 08:03:43;;;;;;;40.93;20.13;;;;;;;4.95;100.00;95507.22;5072694;28;20239;-61
2022/11/27 08:06:23;;;;;;;34.20;20.87;;;;;;;4.98;100.00;95506.25;5054663;28;20199;-62
2022/11/27 08:08:50;;;;;;;36.33;18.83;;;;;;;5.03;100.00;95502.59;5054491;28;20194;-63
2022/11/27 08:11:28;;;;;;;36.70;20.27;;;;;;;5.19;100.00;95534.63;5072291;28;20190;-59
2022/11/27 08:13:56;;;;;;;38.23;20.83;;;;;;;5.18;100.00;95523.72;5072480;28;20193;-61
2022/11/27 08:16:22;;;;;;;36.03;20.63;;;;;;;5.35;100.00;95538.00;5054082;28;20202;-62
2022/11/27 08:18:48;;;;;;;35.60;18.53;;;;;;;5.18;100.00;95512.81;5071995;28;20191;-60
2022/11/27 08:21:13;;;;;;;40.90;20.70;;;;;;;5.22;100.00;95516.81;5072389;28;20199;-62
2022/11/27 08:23:39;;;;;;;37.97;20.47;;;;;;;5.15;100.00;95518.84;5072442;28;20307;-63
2022/11/27 08:26:06;;;;;;;39.07;21.23;;;;;;;5.19;100.00;95514.47;5054155;28;20205;-60
2022/11/27 08:28:32;;;;;;;34.60;20.70;;;;;;;5.16;100.00;95509.56;5072086;28;20517;-60
2022/11/27 08:31:00;;;;;;;35.03;19.97;;;;;;;5.23;100.00;95541.13;5072067;28;20302;-59
2022/11/27 08:33:26;;;;;;;37.10;19.07;;;;;;;5.20;100.00;95516.91;5054006;28;20660;-59
2022/11/27 08:35:53;;;;;;;39.07;19.40;;;;;;;5.22;100.00;95511.78;5054077;28;20219;-62
2022/11/27 08:38:18;;;;;;;38.83;20.90;;;;;;;5.18;100.00;95488.44;5071846;28;20810;-62
2022/11/27 08:40:44;;;;;;;38.03;20.13;;;;;;;5.39;100.00;95506.72;5071987;28;20288;-62
2022/11/27 08:43:09;;;;;;;36.13;20.20;;;;;;;5.34;100.00;95513.66;5053808;28;20232;-59
2022/11/27 08:45:37;;;;;;;41.23;21.07;;;;;;;5.34;100.00;95516.19;5072044;28;20234;-61
2022/11/27 08:48:03;;;;;;;42.27;22.43;;;;;;;5.18;100.00;95485.91;5072141;28;20660;-62
2022/11/27 08:50:28;;;;;;;40.03;22.30;;;;;;;5.35;100.00;95490.94;5071822;28;20207;-61
2022/11/27 08:52:54;;;;;;;39.00;21.90;;;;;;;5.25;100.00;95489.78;5071900;28;20196;-60
2022/11/27 08:55:19;;;;;;;40.87;21.47;;;;;;;5.16;100.00;95464.19;5071346;28;20213;-62
2022/11/27 08:57:44;;;;;;;38.80;21.47;;;;;;;5.11;100.00;95440.03;5071696;28;20196;-63
2022/11/27 09:00:10;;;;;;;37.57;22.07;;;;;;;5.29;100.00;95455.13;5053634;28;20756;-63
2022/11/27 09:02:36;;;;;;;37.60;22.20;;;;;;;5.37;100.00;95474.03;5071566;28;20188;-60
2022/11/27 09:05:04;;;;;;;34.17;20.77;;;;;;;5.67;100.00;95496.81;5053760;28;20636;-61
2022/11/27 09:07:29;;;;;;;38.47;21.50;;;;;;;5.70;100.00;95497.47;5071668;28;20198;-61
2022/11/27 09:09:55;;;;;;;36.67;20.97;;;;;;;5.71;100.00;95505.88;5071614;28;20207;-63
2022/11/27 09:12:20;;;;;;;35.70;20.00;;;;;;;5.67;100.00;95492.59;5053494;28;20276;-60
2022/11/27 09:14:46;;;;;;;40.43;22.27;;;;;;;5.64;100.00;95492.75;5071579;28;20206;-61
2022/11/27 09:17:11;;;;;;;38.03;21.83;;;;;;;5.58;100.00;95480.47;5053350;28;20563;-61
2022/11/27 09:19:37;;;;;;;38.80;21.17;;;;;;;5.62;100.00;95483.63;5071246;28;20234;-60
2022/11/27 09:22:02;;;;;;;46.13;22.40;;;;;;;5.94;100.00;95506.31;5071154;28;20259;-61
2022/11/27 09:24:28;;;;;;;37.27;20.60;;;;;;;6.03;100.00;95506.72;5071027;28;20216;-59
2022/11/27 09:26:53;;;;;;;35.73;20.33;;;;;;;6.00;100.00;95505.16;5071092;28;20216;-60
2022/11/27 09:29:19;;;;;;;40.97;22.50;;;;;;;6.05;100.00;95490.59;5071530;28;20199;-60
2022/11/27 09:31:44;;;;;;;38.77;22.63;;;;;;;6.20;100.00;95511.69;5071281;28;20195;-59
2022/11/27 09:34:09;;;;;;;36.17;21.60;;;;;;;6.03;100.00;95468.84;5071149;28;20215;-60
2022/11/27 09:36:35;;;;;;;38.03;22.83;;;;;;;6.01;100.00;95463.91;5070963;28;20187;-62
2022/11/27 09:39:02;;;;;;;42.00;22.63;;;;;;;6.17;100.00;95467.22;5071112;28;20180;-64
2022/11/27 09:41:53;;;;;;;36.70;21.40;;;;;;;6.39;100.00;95480.28;5071026;28;20207;-62
2022/11/27 09:44:41;;;;;;;35.33;20.10;;;;;;;6.62;100.00;95525.31;5052939;28;20289;-62
2022/11/27 09:47:40;;;;;;;38.60;21.83;;;;;;;6.66;100.00;95514.13;5070991;28;20275;-62
2022/11/27 09:50:29;;;;;;;38.20;21.60;;;;;;;6.89;100.00;95539.84;5071171;28;20261;-61
2022/11/27 09:53:21;;;;;;;34.93;21.90;;;;;;;7.07;100.00;95557.28;5071233;28;20642;-63
2022/11/27 09:55:54;;;;;;;35.33;20.63;;;;;;;7.20;100.00;95542.25;5048939;28;20804;-62
2022/11/27 09:58:35;;;;;;;35.43;19.80;;;;;;;7.28;100.00;95547.66;5071017;28;20254;-62
2022/11/27 10:01:16;;;;;;;36.17;19.87;;;;;;;7.24;100.00;95524.28;5070739;28;20230;-63
2022/11/27 10:03:43;;;;;;;32.47;19.33;;;;;;;7.46;100.00;95561.78;5052604;28;20220;-63
2022/11/27 10:06:31;;;;;;;33.87;19.33;;;;;;;7.52;100.00;95558.91;5052412;28;20185;-61
2022/11/27 10:09:26;;;;;;;30.80;18.93;;;;;;;7.48;100.00;95553.22;5052604;28;20252;-62
2022/11/27 10:12:11;;;;;;;31.53;18.73;;;;;;;7.40;100.00;95544.44;5070840;28;20230;-61
2022/11/27 10:14:39;;;;;;;32.70;19.60;;;;;;;7.45;100.00;95512.09;5070513;28;20761;-59
2022/11/27 10:17:14;;;;;;;27.03;17.57;;;;;;;7.40;100.00;95509.84;5070245;28;20188;-61
2022/11/27 10:20:15;;;;;;;29.03;18.00;;;;;;;7.48;100.00;95522.03;5070562;28;20701;-60
2022/11/27 10:23:01;;;;;;;30.73;17.20;;;;;;;7.48;100.00;95527.09;5070557;28;20274;-60
2022/11/27 10:25:33;;;;;;;29.50;17.37;;;;;;;7.53;100.00;95520.84;5052219;28;20253;-59
2022/11/27 10:28:01;;;;;;;30.03;17.93;;;;;;;7.66;100.00;95523.47;5070259;28;20666;-61
2022/11/27 10:30:30;;;;;;;26.63;18.90;;;;;;;7.63;100.00;95508.50;5070249;28;20286;-61
2022/11/27 10:32:59;;;;;;;26.60;16.20;;;;;;;7.70;100.00;95517.31;5070197;28;20193;-60
2022/11/27 10:35:29;;;;;;;31.40;17.00;;;;;;;7.77;100.00;95493.28;5070433;28;20216;-61
2022/11/27 10:38:10;;;;;;;32.20;16.80;;;;;;;7.77;100.00;95487.41;5070495;28;20188;-62
2022/11/27 10:41:11;;;;;;;25.27;15.87;;;;;;;7.86;100.00;95512.19;5070132;28;20208;-63
2022/11/27 10:43:37;;;;;;;33.00;17.83;;;;;;;7.99;100.00;95501.22;5052137;28;20221;-63
2022/11/27 10:46:17;;;;;;;27.97;16.77;;;;;;;7.98;100.00;95522.34;5069779;28;20238;-60
2022/11/27 10:48:43;;;;;;;35.00;19.10;;;;;;;7.89;100.00;95491.72;5069821;28;20197;-60
2022/11/27 10:51:17;;;;;;;31.87;18.20;;;;;;;8.00;100.00;95520.53;5077198;22;20228;-58
2022/11/27 10:53:47;;;;;;;34.07;19.30;;;;;;;7.97;100.00;95497.97;5069730;28;20207;-60
2022/11/27 10:56:20;;;;;;;29.87;18.70;;;;;;;7.95;100.00;95486.28;5055889;28;20189;-61
2022/11/27 10:59:10;;;;;;;30.50;18.53;;;;;;;7.92;100.00;95479.69;5073385;28;20717;-62
2022/11/27 11:01:47;;;;;;;31.57;18.33;;;;;;;7.96;100.00;95485.41;5073749;28;20193;-61
2022/11/27 11:04:14;;;;;;;32.20;18.57;;;;;;;7.86;100.00;95480.06;5073115;28;20752;-61
2022/11/27 11:06:48;;;;;;;29.70;18.90;;;;;;;7.88;100.00;95485.84;5073265;28;20185;-62
2022/11/27 11:09:14;;;;;;;36.40;20.37;;;;;;;7.92;100.00;95474.63;5073182;28;20245;-62
2022/11/27 11:11:40;;;;;;;32.73;20.43;;;;;;;7.88;100.00;95460.53;5073199;28;20215;-60
2022/11/27 11:14:20;;;;;;;34.80;21.40;;;;;;;7.97;100.00;95476.88;5073087;28;20216;-62
2022/11/27 11:16:46;;;;;;;33.43;20.60;;;;;;;7.93;100.00;95471.22;5073306;28;20261;-62
2022/11/27 11:19:29;;;;;;;33.20;20.90;;;;;;;7.83;100.00;95452.44;5054958;28;20250;-62
2022/11/27 11:21:55;;;;;;;31.53;19.33;;;;;;;7.90;100.00;95461.25;5072962;28;20310;-62
2022/11/27 11:24:45;;;;;;;34.23;20.20;;;;;;;7.82;100.00;95455.06;5073028;28;20304;-62
2022/11/27 11:27:26;;;;;;;35.40;19.60;;;;;;;7.77;100.00;95457.88;5073130;28;20188;-61